createdAt,value
2022-09-11T00:01:15.217Z,32.22
2022-09-11T00:03:43.755Z,31.58
2022-09-11T00:06:13.148Z,30.80
2022-09-11T00:08:41.938Z,30.27
2022-09-11T00:11:16.669Z,34.40
2022-09-11T00:13:46.172Z,37.47
2022-09-11T00:16:19.098Z,29.75
2022-09-11T00:18:46.820Z,29.83
2022-09-11T00:21:13.599Z,32.50
2022-09-11T00:23:40.581Z,28.88
2022-09-11T00:26:07.700Z,29.65
2022-09-11T00:28:34.484Z,34.58
2022-09-11T00:31:07.672Z,31.10
2022-09-11T00:33:36.095Z,29.63
2022-09-11T00:36:06.164Z,29.80
2022-09-11T00:38:36.152Z,30.58
2022-09-11T00:41:07.238Z,29.67
2022-09-11T00:43:55.839Z,33.38
2022-09-11T00:46:41.901Z,28.20
2022-09-11T00:49:23.646Z,37.15
2022-09-11T00:51:55.373Z,31.08
2022-09-11T00:54:28.524Z,30.60
2022-09-11T00:56:57.529Z,33.38
2022-09-11T00:59:26.946Z,31.67
2022-09-11T01:01:54.319Z,31.42
2022-09-11T01:04:23.121Z,33.35
2022-09-11T01:06:53.667Z,34.63
2022-09-11T01:09:20.842Z,37.00
2022-09-11T01:11:51.951Z,34.05
2022-09-11T01:14:52.723Z,32.22
2022-09-11T01:17:31.402Z,37.53
2022-09-11T01:20:13.231Z,37.70
2022-09-11T01:22:58.684Z,39.30
2022-09-11T01:25:57.565Z,37.88
2022-09-11T01:28:31.322Z,35.20
2022-09-11T01:31:05.453Z,36.95
2022-09-11T01:33:50.911Z,40.60
2022-09-11T01:36:25.599Z,42.53
2022-09-11T01:39:02.222Z,35.63
2022-09-11T01:41:35.993Z,45.28
2022-09-11T01:44:21.438Z,43.33
2022-09-11T01:46:50.749Z,46.60
2022-09-11T01:49:38.191Z,41.60
2022-09-11T01:52:09.688Z,38.42
2022-09-11T01:54:44.370Z,49.40
2022-09-11T01:57:56.321Z,40.58
2022-09-11T02:00:23.455Z,41.78
2022-09-11T02:02:59.692Z,43.40
2022-09-11T02:05:53.791Z,42.75
2022-09-11T02:08:31.206Z,43.67
2022-09-11T02:11:09.115Z,46.22
2022-09-11T02:13:56.866Z,37.40
2022-09-11T02:16:41.065Z,43.83
2022-09-11T02:19:15.779Z,39.22
2022-09-11T02:21:43.789Z,34.47
2022-09-11T02:24:10.878Z,40.53
2022-09-11T02:26:42.166Z,44.00
2022-09-11T02:29:10.274Z,46.35
2022-09-11T02:31:37.514Z,44.72
2022-09-11T02:34:04.533Z,39.80
2022-09-11T02:37:00.849Z,45.58
2022-09-11T02:39:39.595Z,39.03
2022-09-11T02:42:38.766Z,35.75
2022-09-11T02:45:23.602Z,42.17
2022-09-11T02:48:02.307Z,49.03
2022-09-11T02:50:43.653Z,42.35
2022-09-11T02:53:27.873Z,43.95
2022-09-11T02:56:03.201Z,51.92
2022-09-11T02:58:39.810Z,54.63
2022-09-11T03:01:08.413Z,45.40
2022-09-11T03:03:45.800Z,50.92
2022-09-11T03:06:18.157Z,53.40
2022-09-11T03:08:45.663Z,48.47
2022-09-11T03:11:15.393Z,44.42
2022-09-11T03:13:42.495Z,43.08
2022-09-11T03:16:09.603Z,51.95
2022-09-11T03:18:36.607Z,57.47
2022-09-11T03:21:03.752Z,53.22
2022-09-11T03:23:30.937Z,50.30
2022-09-11T03:25:58.624Z,51.40
2022-09-11T03:28:25.563Z,58.63
2022-09-11T03:30:54.945Z,55.15
2022-09-11T03:33:22.184Z,57.33
2022-09-11T03:35:48.854Z,61.70
2022-09-11T03:38:15.947Z,72.88
2022-09-11T03:40:44.252Z,55.85
2022-09-11T03:43:12.466Z,54.08
2022-09-11T03:45:39.724Z,59.30
2022-09-11T03:48:06.562Z,60.85
2022-09-11T03:50:33.945Z,62.33
2022-09-11T03:53:00.824Z,58.65
2022-09-11T03:55:28.656Z,65.13
2022-09-11T03:57:55.346Z,58.25
2022-09-11T04:00:22.261Z,56.97
2022-09-11T04:02:49.657Z,68.20
2022-09-11T04:05:16.565Z,57.65
2022-09-11T04:07:43.375Z,53.60
2022-09-11T04:10:10.850Z,77.07
2022-09-11T04:12:37.565Z,66.38
2022-09-11T04:15:04.650Z,62.42
2022-09-11T04:17:31.345Z,75.90
2022-09-11T04:19:58.367Z,131.98
2022-09-11T04:22:26.263Z,75.43
2022-09-11T04:24:53.051Z,75.82
2022-09-11T04:27:23.567Z,90.70
2022-09-11T04:29:50.298Z,121.20
2022-09-11T04:32:16.961Z,125.40
2022-09-11T04:34:44.160Z,82.18
2022-09-11T04:37:11.595Z,77.20
2022-09-11T04:39:38.324Z,80.68
2022-09-11T04:42:05.430Z,91.22
2022-09-11T04:44:32.588Z,85.45
2022-09-11T04:46:59.343Z,80.35
2022-09-11T04:49:26.074Z,81.03
2022-09-11T04:51:52.723Z,101.63
2022-09-11T04:54:23.706Z,87.90
2022-09-11T04:56:50.940Z,90.45
2022-09-11T04:59:20.691Z,84.65
2022-09-11T05:01:47.558Z,87.38
2022-09-11T05:04:15.800Z,81.50
2022-09-11T05:06:48.243Z,81.13
2022-09-11T05:09:17.236Z,92.10
2022-09-11T05:11:44.081Z,85.20
2022-09-11T05:14:11.638Z,87.65
2022-09-11T05:16:38.930Z,90.68
2022-09-11T05:19:05.988Z,87.25
2022-09-11T05:21:33.686Z,85.70
2022-09-11T05:24:01.501Z,88.97
2022-09-11T05:26:30.802Z,78.32
2022-09-11T05:29:12.069Z,80.60
2022-09-11T05:31:39.385Z,90.82
2022-09-11T05:34:07.482Z,83.50
2022-09-11T05:36:35.352Z,90.40
2022-09-11T05:39:03.833Z,114.68
2022-09-11T05:41:30.764Z,87.13
2022-09-11T05:43:58.970Z,97.22
2022-09-11T05:46:26.031Z,83.88
2022-09-11T05:48:52.734Z,74.55
2022-09-11T05:51:21.323Z,81.40
2022-09-11T05:53:52.592Z,81.93
2022-09-11T05:56:24.282Z,79.18
2022-09-11T05:58:51.762Z,90.55
2022-09-11T06:01:24.420Z,75.82
2022-09-11T06:03:51.306Z,84.68
2022-09-11T06:06:21.924Z,78.18
2022-09-11T06:08:50.006Z,74.30
2022-09-11T06:11:18.130Z,77.07
2022-09-11T06:13:49.094Z,73.90
2022-09-11T06:16:21.783Z,80.70
2022-09-11T06:18:49.993Z,82.53
2022-09-11T06:21:23.162Z,79.88
2022-09-11T06:23:52.568Z,71.18
2022-09-11T06:26:21.973Z,72.68
2022-09-11T06:28:50.827Z,74.63
2022-09-11T06:31:20.082Z,72.35
2022-09-11T06:33:47.618Z,71.65
2022-09-11T06:36:17.450Z,79.22
2022-09-11T06:38:44.872Z,71.23
2022-09-11T06:41:14.800Z,71.45
2022-09-11T06:43:42.228Z,77.43
2022-09-11T06:46:13.075Z,66.78
2022-09-11T06:51:11.312Z,63.83
2022-09-11T06:56:06.892Z,68.63
2022-09-11T06:58:33.704Z,67.10
2022-09-11T07:01:04.327Z,68.97
2022-09-11T07:03:31.661Z,66.32
2022-09-11T07:05:59.611Z,64.45
2022-09-11T07:08:27.099Z,62.17
2022-09-11T07:10:54.553Z,65.63
2022-09-11T07:13:24.337Z,64.03
2022-09-11T07:16:00.976Z,59.95
2022-09-11T07:18:36.278Z,66.65
2022-09-11T07:21:13.716Z,64.43
2022-09-11T07:23:42.266Z,66.80
2022-09-11T07:26:12.070Z,66.47
2022-09-11T07:28:39.854Z,65.47
2022-09-11T07:31:12.554Z,76.93
2022-09-11T07:33:46.035Z,73.85
2022-09-11T07:36:16.798Z,69.47
2022-09-11T07:41:11.673Z,74.72
2022-09-11T07:43:39.773Z,75.63
2022-09-11T07:46:07.270Z,69.00
2022-09-11T07:48:34.069Z,72.32
2022-09-11T07:51:04.295Z,72.15
2022-09-11T07:53:41.130Z,64.47
2022-09-11T07:56:13.385Z,65.63
2022-09-11T07:58:43.005Z,54.05
2022-09-11T08:01:12.289Z,68.10
2022-09-11T08:03:39.747Z,61.95
2022-09-11T08:06:16.840Z,59.63
2022-09-11T08:08:45.798Z,70.95
2022-09-11T08:11:15.433Z,77.40
2022-09-11T08:13:42.295Z,68.18
2022-09-11T08:16:09.362Z,71.35
2022-09-11T08:18:37.185Z,72.65
2022-09-11T08:21:12.743Z,70.88
2022-09-11T08:23:42.138Z,73.88
2022-09-11T08:26:15.245Z,75.95
2022-09-11T08:28:43.308Z,89.82
2022-09-11T08:31:11.549Z,76.60
2022-09-11T08:33:38.855Z,76.72
2022-09-11T08:36:09.718Z,81.07
2022-09-11T08:41:24.113Z,79.45
2022-09-11T08:43:56.667Z,73.10
2022-09-11T08:46:28.686Z,82.63
2022-09-11T08:49:10.276Z,89.60
2022-09-11T08:51:37.792Z,82.38
2022-09-11T08:54:06.434Z,86.70
2022-09-11T08:56:36.370Z,79.43
2022-09-11T08:59:50.321Z,79.77
2022-09-11T09:02:27.187Z,69.72
2022-09-11T09:05:32.267Z,72.97
2022-09-11T09:08:20.293Z,63.88
2022-09-11T09:10:52.205Z,68.45
2022-09-11T09:13:27.787Z,65.00
2022-09-11T09:16:12.646Z,69.40
2022-09-11T09:18:50.525Z,67.00
2022-09-11T09:21:33.237Z,67.18
2022-09-11T09:24:04.928Z,69.43
2022-09-11T09:26:39.901Z,60.85
2022-09-11T09:29:14.464Z,65.30
2022-09-11T09:31:44.261Z,57.28
2022-09-11T09:34:19.809Z,64.72
2022-09-11T09:36:56.716Z,58.65
2022-09-11T09:39:24.345Z,56.28
2022-09-11T09:42:11.068Z,57.58
2022-09-11T09:45:02.465Z,59.00
2022-09-11T09:47:29.715Z,51.63
2022-09-11T09:49:58.365Z,57.60
2022-09-11T09:52:31.126Z,52.50
2022-09-11T09:55:04.491Z,54.10
2022-09-11T09:57:39.929Z,51.53
2022-09-11T10:00:14.540Z,60.45
2022-09-11T10:02:41.265Z,54.45
2022-09-11T10:05:17.215Z,58.85
2022-09-11T10:07:52.487Z,53.47
2022-09-11T10:10:26.577Z,65.22
2022-09-11T10:13:13.019Z,66.28
2022-09-11T10:15:43.316Z,65.27
2022-09-11T10:18:31.140Z,58.78
2022-09-11T10:21:13.301Z,59.20
2022-09-11T10:23:54.852Z,55.40
2022-09-11T10:26:34.795Z,52.55
2022-09-11T10:29:07.654Z,52.63
2022-09-11T10:31:39.006Z,50.72
2022-09-11T10:34:07.295Z,45.67
2022-09-11T10:36:35.081Z,43.15
2022-09-11T10:39:02.672Z,43.30
2022-09-11T10:41:34.293Z,40.63
2022-09-11T10:44:13.924Z,45.55
2022-09-11T10:46:42.792Z,40.80
2022-09-11T10:49:21.121Z,39.03
2022-09-11T10:52:19.127Z,43.08
2022-09-11T10:55:05.953Z,44.13
2022-09-11T10:57:50.299Z,40.45
2022-09-11T11:00:29.069Z,35.95
2022-09-11T11:03:01.171Z,42.70
2022-09-11T11:05:41.088Z,39.40
2022-09-11T11:08:21.540Z,42.50
2022-09-11T11:11:15.157Z,37.13
2022-09-11T11:13:47.828Z,38.35
2022-09-11T11:16:21.176Z,37.63
2022-09-11T11:19:08.514Z,37.03
2022-09-11T11:22:00.380Z,37.85
2022-09-11T11:24:47.423Z,38.25
2022-09-11T11:27:29.988Z,38.00
2022-09-11T11:30:15.888Z,38.72
2022-09-11T11:33:17.368Z,41.38
2022-09-11T11:36:02.002Z,37.05
2022-09-11T11:39:00.357Z,41.00
2022-09-11T11:41:42.107Z,40.50
2022-09-11T11:44:15.744Z,36.95
2022-09-11T11:46:46.749Z,47.22
2022-09-11T11:49:35.341Z,42.67
2022-09-11T11:52:19.396Z,42.97
2022-09-11T11:55:10.327Z,41.58
2022-09-11T12:00:12.906Z,42.13
2022-09-11T12:02:49.622Z,45.28
2022-09-11T12:05:33.966Z,38.83
2022-09-11T12:08:01.462Z,42.50
2022-09-11T12:11:09.828Z,37.15
2022-09-11T12:13:42.766Z,36.60
2022-09-11T12:16:28.997Z,36.10
2022-09-11T12:19:07.424Z,44.75
2022-09-11T12:21:40.112Z,34.22
2022-09-11T12:24:06.841Z,40.22
2022-09-11T12:26:33.635Z,37.05
2022-09-11T12:29:13.070Z,43.05
2022-09-11T12:31:51.926Z,36.95
2022-09-11T12:34:24.929Z,43.20
2022-09-11T12:37:05.391Z,35.30
2022-09-11T12:39:38.636Z,29.00
2022-09-11T12:42:23.930Z,28.80
2022-09-11T12:44:50.586Z,28.52
2022-09-11T12:47:39.341Z,29.33
2022-09-11T12:50:06.089Z,28.48
2022-09-11T12:52:44.713Z,27.38
2022-09-11T12:55:29.916Z,28.15
2022-09-11T12:58:02.519Z,28.08
2022-09-11T13:00:46.016Z,25.85
2022-09-11T13:03:25.577Z,26.38
2022-09-11T13:06:08.264Z,26.73
2022-09-11T13:08:44.909Z,27.75
2022-09-11T13:11:34.467Z,28.05
2022-09-11T13:14:01.497Z,41.47
2022-09-11T13:16:34.834Z,28.38
2022-09-11T13:19:13.414Z,24.73
2022-09-11T13:21:49.423Z,26.90
2022-09-11T13:24:30.222Z,28.17
2022-09-11T13:27:06.087Z,26.35
2022-09-11T13:29:35.563Z,26.50
2022-09-11T13:32:13.281Z,27.17
2022-09-11T13:34:44.837Z,27.67
2022-09-11T13:37:15.607Z,26.42
2022-09-11T13:39:43.939Z,32.10
2022-09-11T13:42:18.333Z,27.20
2022-09-11T13:44:52.080Z,26.55
2022-09-11T13:47:23.084Z,27.15
2022-09-11T13:50:02.741Z,25.83
2022-09-11T13:52:33.944Z,26.50
2022-09-11T13:55:09.708Z,26.15
2022-09-11T13:57:58.678Z,23.92
2022-09-11T14:00:48.170Z,24.60
2022-09-11T14:03:22.626Z,27.50
2022-09-11T14:05:54.727Z,25.58
2022-09-11T14:08:35.230Z,24.77
2022-09-11T14:13:43.154Z,25.10
2022-09-11T14:16:27.483Z,22.95
2022-09-11T14:19:15.091Z,22.35
2022-09-11T14:21:44.765Z,23.08
2022-09-11T14:24:32.796Z,22.98
2022-09-11T14:27:04.766Z,21.85
2022-09-11T14:29:33.223Z,22.02
2022-09-11T14:32:28.006Z,20.05
2022-09-11T14:34:55.091Z,22.67
2022-09-11T14:37:22.423Z,22.63
2022-09-11T14:39:58.045Z,18.75
2022-09-11T14:42:31.439Z,21.48
2022-09-11T14:44:58.441Z,21.63
2022-09-11T14:47:27.969Z,21.58
2022-09-11T14:49:57.043Z,23.43
2022-09-11T14:52:27.124Z,21.75
2022-09-11T14:54:54.302Z,23.17
2022-09-11T14:57:23.917Z,21.05
2022-09-11T14:59:51.555Z,20.58
2022-09-11T15:02:21.257Z,19.90
2022-09-11T15:04:49.101Z,20.95
2022-09-11T15:07:18.616Z,20.15
2022-09-11T15:09:46.674Z,21.00
2022-09-11T15:12:14.784Z,20.92
2022-09-11T15:14:56.555Z,20.30
2022-09-11T15:17:25.191Z,20.23
2022-09-11T15:19:52.693Z,17.58
2022-09-11T15:22:19.665Z,17.80
2022-09-11T15:24:47.204Z,17.25
2022-09-11T15:27:14.944Z,17.70
2022-09-11T15:29:42.565Z,15.40
2022-09-11T15:32:10.273Z,17.25
2022-09-11T15:34:38.631Z,19.00
2022-09-11T15:37:05.542Z,17.25
2022-09-11T15:39:34.032Z,17.42
2022-09-11T15:42:01.942Z,17.63
2022-09-11T15:44:29.504Z,16.33
2022-09-11T15:46:58.389Z,18.23
2022-09-11T15:49:29.195Z,16.48
2022-09-11T15:51:56.482Z,15.88
2022-09-11T15:54:23.460Z,17.25
2022-09-11T15:56:51.205Z,17.13
2022-09-11T15:59:18.430Z,16.45
2022-09-11T16:01:45.576Z,16.00
2022-09-11T16:04:14.869Z,22.13
2022-09-11T16:06:45.573Z,15.90
2022-09-11T16:09:27.229Z,17.17
2022-09-11T16:11:55.186Z,15.18
2022-09-11T16:14:29.035Z,15.60
2022-09-11T16:16:58.472Z,16.25
2022-09-11T16:19:28.016Z,16.43
2022-09-11T16:22:00.459Z,15.23
2022-09-11T16:24:28.939Z,16.02
2022-09-11T16:26:56.140Z,15.93
2022-09-11T16:29:25.591Z,15.55
2022-09-11T16:31:52.835Z,19.92
2022-09-11T16:34:19.538Z,21.13
2022-09-11T16:36:46.437Z,17.13
2022-09-11T16:39:15.717Z,14.95
2022-09-11T16:41:43.267Z,16.40
2022-09-11T16:44:13.425Z,18.70
2022-09-11T16:46:42.232Z,16.67
2022-09-11T16:49:15.474Z,17.30
2022-09-11T16:51:43.701Z,17.20
2022-09-11T16:54:11.152Z,16.80
2022-09-11T16:56:40.562Z,16.45
2022-09-11T16:59:09.705Z,16.00
2022-09-11T17:01:37.163Z,16.15
2022-09-11T17:04:04.074Z,17.80
2022-09-11T17:06:31.034Z,17.85
2022-09-11T17:08:59.872Z,17.48
2022-09-11T17:11:28.336Z,17.52
2022-09-11T17:13:55.269Z,17.48
2022-09-11T17:16:25.987Z,16.48
2022-09-11T17:18:56.582Z,15.75
2022-09-11T17:21:24.905Z,15.75
2022-09-11T17:23:53.850Z,15.77
2022-09-11T17:26:21.587Z,14.43
2022-09-11T17:28:49.904Z,18.33
2022-09-11T17:31:19.297Z,18.77
2022-09-11T17:33:47.957Z,16.92
2022-09-11T17:36:17.757Z,15.50
2022-09-11T17:38:46.318Z,15.15
2022-09-11T17:41:14.443Z,16.42
2022-09-11T17:43:41.259Z,15.95
2022-09-11T17:46:16.821Z,17.92
2022-09-11T17:48:43.938Z,16.27
2022-09-11T17:51:15.226Z,16.40
2022-09-11T17:53:46.249Z,16.17
2022-09-11T17:56:17.416Z,17.50
2022-09-11T17:58:45.160Z,17.95
2022-09-11T18:01:16.707Z,17.58
2022-09-11T18:03:44.177Z,19.90
2022-09-11T18:06:28.235Z,18.25
2022-09-11T18:09:01.627Z,18.15
2022-09-11T18:11:30.082Z,18.63
2022-09-11T18:13:58.105Z,17.90
2022-09-11T18:16:25.043Z,17.98
2022-09-11T18:18:52.054Z,18.10
2022-09-11T18:21:18.955Z,18.38
2022-09-11T18:23:46.508Z,18.27
2022-09-11T18:26:25.851Z,16.83
2022-09-11T18:29:00.795Z,18.77
2022-09-11T18:31:30.152Z,17.55
2022-09-11T18:34:00.028Z,18.35
2022-09-11T18:36:30.116Z,17.77
2022-09-11T18:39:01.017Z,18.40
2022-09-11T18:41:29.620Z,18.55
2022-09-11T18:44:00.022Z,18.63
2022-09-11T18:46:27.448Z,22.45
2022-09-11T18:48:55.863Z,21.73
2022-09-11T18:51:22.942Z,19.98
2022-09-11T18:53:53.569Z,20.10
2022-09-11T18:56:22.790Z,19.05
2022-09-11T18:58:52.348Z,28.92
2022-09-11T19:01:22.705Z,28.10
2022-09-11T19:03:53.225Z,24.13
2022-09-11T19:06:28.025Z,23.10
2022-09-11T19:08:56.033Z,22.58
2022-09-11T19:11:25.158Z,21.40
2022-09-11T19:13:53.862Z,18.92
2022-09-11T19:16:21.894Z,19.10
2022-09-11T19:18:49.094Z,19.48
2022-09-11T19:21:22.359Z,19.33
2022-09-11T19:23:55.459Z,20.90
2022-09-11T19:26:27.166Z,20.60
2022-09-11T19:28:55.763Z,23.58
2022-09-11T19:31:30.143Z,27.35
2022-09-11T19:34:01.620Z,26.58
2022-09-11T19:36:31.244Z,22.70
2022-09-11T19:39:01.036Z,23.00
2022-09-11T19:41:30.835Z,20.47
2022-09-11T19:44:02.224Z,20.23
2022-09-11T19:46:31.477Z,20.98
2022-09-11T19:49:00.858Z,20.40
2022-09-11T19:51:30.378Z,19.25
2022-09-11T19:54:00.304Z,21.67
2022-09-11T19:56:28.670Z,23.10
2022-09-11T19:58:56.191Z,26.75
2022-09-11T20:01:25.303Z,32.28
2022-09-11T20:03:54.254Z,26.50
2022-09-11T20:06:24.395Z,26.58
2022-09-11T20:09:07.613Z,24.25
2022-09-11T20:11:39.490Z,21.85
2022-09-11T20:14:06.338Z,22.08
2022-09-11T20:16:33.402Z,22.75
2022-09-11T20:19:09.266Z,20.77
2022-09-11T20:21:36.208Z,23.20
2022-09-11T20:24:05.123Z,23.65
2022-09-11T20:26:32.712Z,21.92
2022-09-11T20:29:06.903Z,22.40
2022-09-11T20:31:47.617Z,23.92
2022-09-11T20:34:16.892Z,25.48
2022-09-11T20:36:43.730Z,25.35
2022-09-11T20:39:12.616Z,25.45
2022-09-11T20:41:39.428Z,25.00
2022-09-11T20:44:06.237Z,24.23
2022-09-11T20:46:33.119Z,23.67
2022-09-11T20:49:00.836Z,24.88
2022-09-11T20:51:28.152Z,24.60
2022-09-11T20:53:55.847Z,25.40
2022-09-11T20:56:23.650Z,25.02
2022-09-11T20:58:50.690Z,24.52
2022-09-11T21:01:21.210Z,25.65
2022-09-11T21:03:50.786Z,24.98
2022-09-11T21:06:23.310Z,26.65
2022-09-11T21:08:57.055Z,26.30
2022-09-11T21:11:25.351Z,25.58
2022-09-11T21:13:52.229Z,26.52
2022-09-11T21:16:20.811Z,25.38
2022-09-11T21:18:50.060Z,26.17
2022-09-11T21:21:17.419Z,28.00
2022-09-11T21:23:44.787Z,26.58
2022-09-11T21:26:13.467Z,26.38
2022-09-11T21:28:40.548Z,27.35
2022-09-11T21:31:07.633Z,26.42
2022-09-11T21:33:36.197Z,29.10
2022-09-11T21:36:03.375Z,29.10
2022-09-11T21:38:30.266Z,28.95
2022-09-11T21:40:58.991Z,28.95
2022-09-11T21:43:26.437Z,27.35
2022-09-11T21:45:53.775Z,28.40
2022-09-11T21:48:20.851Z,28.60
2022-09-11T21:50:47.774Z,27.40
2022-09-11T21:53:14.811Z,27.83
2022-09-11T21:55:43.433Z,28.52
2022-09-11T21:58:15.559Z,27.10
2022-09-11T22:00:43.400Z,27.50
2022-09-11T22:03:17.036Z,27.33
2022-09-11T22:05:45.093Z,25.20
2022-09-11T22:08:13.564Z,27.02
2022-09-11T22:10:45.380Z,26.55
2022-09-11T22:13:12.134Z,25.23
2022-09-11T22:15:48.025Z,25.02
2022-09-11T22:18:16.681Z,24.98
2022-09-11T22:20:43.807Z,23.80
2022-09-11T22:23:15.637Z,26.45
2022-09-11T22:25:42.693Z,26.33
2022-09-11T22:28:09.659Z,26.05
2022-09-11T22:30:40.417Z,24.67
2022-09-11T22:35:35.500Z,27.13
2022-09-11T22:38:02.189Z,27.55
2022-09-11T22:40:28.926Z,26.08
2022-09-11T22:42:55.678Z,25.95
2022-09-11T22:45:22.742Z,26.55
2022-09-11T22:47:49.839Z,27.15
2022-09-11T22:50:16.691Z,26.77
2022-09-11T22:52:43.403Z,25.80
2022-09-11T22:55:11.161Z,26.63
2022-09-11T22:57:38.626Z,26.83
2022-09-11T23:00:09.067Z,28.60
2022-09-11T23:02:36.405Z,28.95
2022-09-11T23:05:23.803Z,26.80
2022-09-11T23:07:51.693Z,26.45
2022-09-11T23:10:23.392Z,27.58
2022-09-11T23:12:52.077Z,28.30
2022-09-11T23:15:21.237Z,27.27
2022-09-11T23:17:48.053Z,26.83
2022-09-11T23:20:14.919Z,27.75
2022-09-11T23:22:41.594Z,28.88
2022-09-11T23:25:08.919Z,28.65
2022-09-11T23:27:35.591Z,28.90
2022-09-11T23:30:02.351Z,28.88
2022-09-11T23:32:29.071Z,26.33
2022-09-11T23:34:55.815Z,27.05
2022-09-11T23:37:22.708Z,28.38
2022-09-11T23:39:49.538Z,28.02
2022-09-11T23:42:16.302Z,26.13
2022-09-11T23:44:43.016Z,26.73
2022-09-11T23:47:09.691Z,26.55
2022-09-11T23:49:36.757Z,27.63
2022-09-11T23:52:04.884Z,28.25
2022-09-11T23:54:31.808Z,26.80
2022-09-11T23:56:59.022Z,26.38
2022-09-11T23:59:25.753Z,28.05
